Terminal Aerodrome Forecast
Issued by NWS

Home | Current Version | Previous Version | Text Only | Print | Product List | Glossary On
Versions: 1 2 3 4 5 6 7 8 9 10 11 12 13 14 15 16 17 18 19 20 21 22
000
FTUS41 KBGM 261100
TAFELM
TAF
KELM 261127Z 2612/2712 00000KT P6SM BKN150
     FM261300 24005KT P6SM BKN120
     FM261800 24007KT P6SM BKN060
     FM270000 23002KT P6SM OVC100
     FM270600 23002KT 6SM BR SCT100
      TEMPO 2708/2712 2SM BR=

USA.gov is the U.S. government's official web portal to all federal, state and local government web resources and services.